sensor_id;sensor_type;location;lat;lon;timestamp;P1;durP1;ratioP1;P2;durP2;ratioP2
46491;SDS011;32206;51.446;6.792;2023-08-06T00:00:54;2.93;;;1.60;;
46491;SDS011;32206;51.446;6.792;2023-08-06T00:03:20;2.75;;;2.53;;
46491;SDS011;32206;51.446;6.792;2023-08-06T00:05:45;3.90;;;2.00;;
46491;SDS011;32206;51.446;6.792;2023-08-06T00:08:11;4.25;;;2.35;;
46491;SDS011;32206;51.446;6.792;2023-08-06T00:10:37;4.03;;;2.15;;
46491;SDS011;32206;51.446;6.792;2023-08-06T00:13:05;8.63;;;2.00;;
46491;SDS011;32206;51.446;6.792;2023-08-06T00:15:30;2.05;;;1.70;;
46491;SDS011;32206;51.446;6.792;2023-08-06T00:17:56;4.13;;;1.67;;
46491;SDS011;32206;51.446;6.792;2023-08-06T00:20:21;2.45;;;1.95;;
46491;SDS011;32206;51.446;6.792;2023-08-06T00:22:47;2.70;;;1.75;;
46491;SDS011;32206;51.446;6.792;2023-08-06T00:25:13;3.15;;;2.25;;
46491;SDS011;32206;51.446;6.792;2023-08-06T00:27:38;5.28;;;2.75;;
46491;SDS011;32206;51.446;6.792;2023-08-06T00:30:04;3.97;;;2.17;;
46491;SDS011;32206;51.446;6.792;2023-08-06T00:32:30;2.28;;;2.17;;
46491;SDS011;32206;51.446;6.792;2023-08-06T00:34:56;1.95;;;1.77;;
46491;SDS011;32206;51.446;6.792;2023-08-06T00:37:21;2.20;;;1.75;;
46491;SDS011;32206;51.446;6.792;2023-08-06T00:39:47;4.43;;;2.20;;
46491;SDS011;32206;51.446;6.792;2023-08-06T00:42:13;10.88;;;1.70;;
46491;SDS011;32206;51.446;6.792;2023-08-06T00:44:39;2.13;;;1.92;;
46491;SDS011;32206;51.446;6.792;2023-08-06T00:47:05;6.20;;;1.90;;
46491;SDS011;32206;51.446;6.792;2023-08-06T00:49:32;3.78;;;1.92;;
46491;SDS011;32206;51.446;6.792;2023-08-06T00:51:59;1.95;;;1.85;;
46491;SDS011;32206;51.446;6.792;2023-08-06T00:54:25;2.08;;;1.65;;
46491;SDS011;32206;51.446;6.792;2023-08-06T00:56:52;5.80;;;1.90;;
46491;SDS011;32206;51.446;6.792;2023-08-06T00:59:18;2.55;;;1.95;;
46491;SDS011;32206;51.446;6.792;2023-08-06T01:01:45;5.18;;;2.10;;
46491;SDS011;32206;51.446;6.792;2023-08-06T01:04:10;2.20;;;2.00;;
46491;SDS011;32206;51.446;6.792;2023-08-06T01:06:44;2.78;;;1.98;;
46491;SDS011;32206;51.446;6.792;2023-08-06T01:15:17;2.22;;;1.75;;
46491;SDS011;32206;51.446;6.792;2023-08-06T01:17:27;4.13;;;2.17;;
46491;SDS011;32206;51.446;6.792;2023-08-06T01:19:54;2.50;;;2.08;;
46491;SDS011;32206;51.446;6.792;2023-08-06T01:22:20;2.50;;;1.85;;
46491;SDS011;32206;51.446;6.792;2023-08-06T01:24:46;4.22;;;1.90;;
46491;SDS011;32206;51.446;6.792;2023-08-06T01:27:17;5.75;;;1.88;;
46491;SDS011;32206;51.446;6.792;2023-08-06T01:30:06;2.88;;;1.92;;
46491;SDS011;32206;51.446;6.792;2023-08-06T01:32:34;3.85;;;1.90;;
46491;SDS011;32206;51.446;6.792;2023-08-06T01:35:03;4.30;;;1.70;;
46491;SDS011;32206;51.446;6.792;2023-08-06T01:37:29;5.75;;;3.10;;
46491;SDS011;32206;51.446;6.792;2023-08-06T01:39:55;4.03;;;1.58;;
46491;SDS011;32206;51.446;6.792;2023-08-06T01:42:21;9.73;;;2.05;;
46491;SDS011;32206;51.446;6.792;2023-08-06T01:44:46;2.55;;;1.65;;
46491;SDS011;32206;51.446;6.792;2023-08-06T01:47:12;3.47;;;1.77;;
46491;SDS011;32206;51.446;6.792;2023-08-06T01:49:38;3.40;;;1.48;;
46491;SDS011;32206;51.446;6.792;2023-08-06T01:52:03;3.60;;;1.40;;
46491;SDS011;32206;51.446;6.792;2023-08-06T01:54:29;1.85;;;1.73;;
46491;SDS011;32206;51.446;6.792;2023-08-06T01:56:55;3.70;;;2.10;;
46491;SDS011;32206;51.446;6.792;2023-08-06T01:59:23;1.90;;;1.55;;
46491;SDS011;32206;51.446;6.792;2023-08-06T02:01:49;2.00;;;1.70;;
46491;SDS011;32206;51.446;6.792;2023-08-06T02:04:14;2.00;;;1.65;;
46491;SDS011;32206;51.446;6.792;2023-08-06T02:06:40;1.85;;;1.67;;
46491;SDS011;32206;51.446;6.792;2023-08-06T02:09:06;3.40;;;1.77;;
46491;SDS011;32206;51.446;6.792;2023-08-06T02:11:31;2.08;;;1.73;;
46491;SDS011;32206;51.446;6.792;2023-08-06T02:17:19;2.28;;;1.63;;
46491;SDS011;32206;51.446;6.792;2023-08-06T02:19:44;1.60;;;1.50;;
46491;SDS011;32206;51.446;6.792;2023-08-06T02:22:10;3.08;;;1.63;;
46491;SDS011;32206;51.446;6.792;2023-08-06T02:24:36;3.05;;;1.83;;
46491;SDS011;32206;51.446;6.792;2023-08-06T02:27:01;2.42;;;2.10;;
46491;SDS011;32206;51.446;6.792;2023-08-06T02:29:27;1.70;;;1.60;;
46491;SDS011;32206;51.446;6.792;2023-08-06T02:31:55;2.83;;;1.60;;
46491;SDS011;32206;51.446;6.792;2023-08-06T02:37:43;3.30;;;1.75;;
46491;SDS011;32206;51.446;6.792;2023-08-06T02:40:08;1.52;;;1.42;;
46491;SDS011;32206;51.446;6.792;2023-08-06T02:42:34;6.00;;;1.85;;
46491;SDS011;32206;51.446;6.792;2023-08-06T02:45:00;3.80;;;1.60;;
46491;SDS011;32206;51.446;6.792;2023-08-06T02:47:26;2.83;;;1.42;;
46491;SDS011;32206;51.446;6.792;2023-08-06T02:49:51;2.92;;;1.73;;
46491;SDS011;32206;51.446;6.792;2023-08-06T02:52:17;2.00;;;1.80;;
46491;SDS011;32206;51.446;6.792;2023-08-06T02:54:43;2.20;;;1.30;;
46491;SDS011;32206;51.446;6.792;2023-08-06T02:57:09;1.75;;;1.38;;
46491;SDS011;32206;51.446;6.792;2023-08-06T02:59:34;3.70;;;1.60;;
46491;SDS011;32206;51.446;6.792;2023-08-06T03:02:00;2.65;;;2.35;;
46491;SDS011;32206;51.446;6.792;2023-08-06T03:04:26;1.67;;;1.58;;
46491;SDS011;32206;51.446;6.792;2023-08-06T03:06:52;3.38;;;1.80;;
46491;SDS011;32206;51.446;6.792;2023-08-06T03:09:18;3.67;;;1.73;;
46491;SDS011;32206;51.446;6.792;2023-08-06T03:11:44;3.13;;;1.70;;
46491;SDS011;32206;51.446;6.792;2023-08-06T03:14:09;2.03;;;1.85;;
46491;SDS011;32206;51.446;6.792;2023-08-06T03:16:35;4.72;;;1.80;;
46491;SDS011;32206;51.446;6.792;2023-08-06T03:19:01;1.65;;;1.52;;
46491;SDS011;32206;51.446;6.792;2023-08-06T03:21:27;5.95;;;2.22;;
46491;SDS011;32206;51.446;6.792;2023-08-06T03:23:53;1.88;;;1.77;;
46491;SDS011;32206;51.446;6.792;2023-08-06T03:26:19;4.47;;;1.95;;
46491;SDS011;32206;51.446;6.792;2023-08-06T03:28:44;5.15;;;2.08;;
46491;SDS011;32206;51.446;6.792;2023-08-06T03:31:10;2.65;;;1.80;;
46491;SDS011;32206;51.446;6.792;2023-08-06T03:33:36;3.58;;;1.98;;
46491;SDS011;32206;51.446;6.792;2023-08-06T03:36:01;1.85;;;1.75;;
46491;SDS011;32206;51.446;6.792;2023-08-06T03:38:27;2.00;;;1.65;;
46491;SDS011;32206;51.446;6.792;2023-08-06T03:40:53;1.65;;;1.52;;
46491;SDS011;32206;51.446;6.792;2023-08-06T03:43:19;3.28;;;1.90;;
46491;SDS011;32206;51.446;6.792;2023-08-06T03:45:45;1.65;;;1.55;;
46491;SDS011;32206;51.446;6.792;2023-08-06T03:48:10;1.60;;;1.50;;
46491;SDS011;32206;51.446;6.792;2023-08-06T03:50:36;4.40;;;3.47;;
46491;SDS011;32206;51.446;6.792;2023-08-06T03:59:47;3.15;;;2.40;;
46491;SDS011;32206;51.446;6.792;2023-08-06T04:02:13;6.45;;;2.10;;
46491;SDS011;32206;51.446;6.792;2023-08-06T04:04:39;3.75;;;2.55;;
46491;SDS011;32206;51.446;6.792;2023-08-06T04:07:04;2.90;;;1.88;;
46491;SDS011;32206;51.446;6.792;2023-08-06T04:09:30;2.55;;;2.10;;
46491;SDS011;32206;51.446;6.792;2023-08-06T04:11:56;2.10;;;2.00;;
46491;SDS011;32206;51.446;6.792;2023-08-06T04:14:23;2.28;;;2.00;;
46491;SDS011;32206;51.446;6.792;2023-08-06T04:16:51;2.92;;;1.90;;
46491;SDS011;32206;51.446;6.792;2023-08-06T04:19:16;3.70;;;2.00;;
46491;SDS011;32206;51.446;6.792;2023-08-06T04:21:42;2.05;;;1.85;;
46491;SDS011;32206;51.446;6.792;2023-08-06T04:24:08;2.42;;;1.80;;
46491;SDS011;32206;51.446;6.792;2023-08-06T04:26:34;4.88;;;2.05;;
46491;SDS011;32206;51.446;6.792;2023-08-06T04:29:00;3.22;;;2.30;;
46491;SDS011;32206;51.446;6.792;2023-08-06T04:31:26;4.18;;;2.60;;
46491;SDS011;32206;51.446;6.792;2023-08-06T04:33:51;3.45;;;2.10;;
46491;SDS011;32206;51.446;6.792;2023-08-06T04:36:17;4.35;;;1.50;;
46491;SDS011;32206;51.446;6.792;2023-08-06T04:38:43;3.15;;;2.08;;
46491;SDS011;32206;51.446;6.792;2023-08-06T04:41:10;3.35;;;1.95;;
46491;SDS011;32206;51.446;6.792;2023-08-06T04:43:36;3.83;;;1.80;;
46491;SDS011;32206;51.446;6.792;2023-08-06T04:46:02;1.92;;;1.83;;
46491;SDS011;32206;51.446;6.792;2023-08-06T04:48:27;2.95;;;1.80;;
46491;SDS011;32206;51.446;6.792;2023-08-06T04:50:53;2.20;;;2.00;;
46491;SDS011;32206;51.446;6.792;2023-08-06T04:53:19;3.88;;;1.95;;
46491;SDS011;32206;51.446;6.792;2023-08-06T04:55:45;3.78;;;2.08;;
46491;SDS011;32206;51.446;6.792;2023-08-06T04:58:11;5.40;;;2.17;;
46491;SDS011;32206;51.446;6.792;2023-08-06T05:00:37;5.00;;;2.10;;
46491;SDS011;32206;51.446;6.792;2023-08-06T05:03:04;2.38;;;1.77;;
46491;SDS011;32206;51.446;6.792;2023-08-06T05:05:30;2.97;;;2.35;;
46491;SDS011;32206;51.446;6.792;2023-08-06T05:07:56;2.60;;;1.73;;
46491;SDS011;32206;51.446;6.792;2023-08-06T05:10:24;5.10;;;2.08;;
46491;SDS011;32206;51.446;6.792;2023-08-06T05:19:00;2.97;;;1.83;;
46491;SDS011;32206;51.446;6.792;2023-08-06T05:21:25;3.47;;;2.40;;
46491;SDS011;32206;51.446;6.792;2023-08-06T05:23:51;5.65;;;1.73;;
46491;SDS011;32206;51.446;6.792;2023-08-06T05:26:17;2.78;;;2.13;;
46491;SDS011;32206;51.446;6.792;2023-08-06T05:28:44;2.10;;;1.58;;
46491;SDS011;32206;51.446;6.792;2023-08-06T05:31:10;1.92;;;1.67;;
46491;SDS011;32206;51.446;6.792;2023-08-06T05:33:36;3.38;;;1.63;;
46491;SDS011;32206;51.446;6.792;2023-08-06T05:36:02;1.98;;;1.48;;
46491;SDS011;32206;51.446;6.792;2023-08-06T05:38:29;2.03;;;1.60;;
46491;SDS011;32206;51.446;6.792;2023-08-06T05:40:55;1.90;;;1.80;;
46491;SDS011;32206;51.446;6.792;2023-08-06T05:46:39;2.35;;;1.90;;
46491;SDS011;32206;51.446;6.792;2023-08-06T05:49:05;2.95;;;1.50;;
46491;SDS011;32206;51.446;6.792;2023-08-06T05:51:30;3.17;;;1.38;;
46491;SDS011;32206;51.446;6.792;2023-08-06T05:57:18;3.03;;;1.52;;
46491;SDS011;32206;51.446;6.792;2023-08-06T05:59:44;2.25;;;1.52;;
46491;SDS011;32206;51.446;6.792;2023-08-06T06:05:32;3.53;;;1.77;;
46491;SDS011;32206;51.446;6.792;2023-08-06T06:07:57;3.78;;;1.60;;
46491;SDS011;32206;51.446;6.792;2023-08-06T06:10:23;4.38;;;1.40;;
46491;SDS011;32206;51.446;6.792;2023-08-06T06:19:52;2.95;;;1.40;;
46491;SDS011;32206;51.446;6.792;2023-08-06T06:22:17;1.83;;;1.23;;
46491;SDS011;32206;51.446;6.792;2023-08-06T06:24:43;2.75;;;1.50;;
46491;SDS011;32206;51.446;6.792;2023-08-06T06:27:08;2.42;;;1.48;;
46491;SDS011;32206;51.446;6.792;2023-08-06T06:39:27;5.85;;;1.50;;
46491;SDS011;32206;51.446;6.792;2023-08-06T06:41:53;3.03;;;1.52;;
46491;SDS011;32206;51.446;6.792;2023-08-06T06:44:19;4.38;;;1.60;;
46491;SDS011;32206;51.446;6.792;2023-08-06T06:46:45;6.93;;;1.38;;
46491;SDS011;32206;51.446;6.792;2023-08-06T06:49:11;1.70;;;1.60;;
46491;SDS011;32206;51.446;6.792;2023-08-06T06:51:37;2.30;;;1.40;;
46491;SDS011;32206;51.446;6.792;2023-08-06T06:54:02;1.67;;;1.27;;
46491;SDS011;32206;51.446;6.792;2023-08-06T06:56:28;2.65;;;2.05;;
46491;SDS011;32206;51.446;6.792;2023-08-06T06:58:54;2.97;;;1.50;;
46491;SDS011;32206;51.446;6.792;2023-08-06T07:01:20;1.98;;;1.50;;
46491;SDS011;32206;51.446;6.792;2023-08-06T07:07:07;2.30;;;1.55;;
46491;SDS011;32206;51.446;6.792;2023-08-06T07:09:33;1.85;;;1.75;;
46491;SDS011;32206;51.446;6.792;2023-08-06T07:11:59;2.20;;;1.98;;
46491;SDS011;32206;51.446;6.792;2023-08-06T07:14:25;7.05;;;5.53;;
46491;SDS011;32206;51.446;6.792;2023-08-06T07:16:51;5.75;;;5.25;;
46491;SDS011;32206;51.446;6.792;2023-08-06T07:19:16;2.03;;;1.70;;
46491;SDS011;32206;51.446;6.792;2023-08-06T07:21:43;1.50;;;1.40;;
46491;SDS011;32206;51.446;6.792;2023-08-06T07:24:08;1.90;;;1.80;;
46491;SDS011;32206;51.446;6.792;2023-08-06T07:26:34;2.42;;;1.90;;
46491;SDS011;32206;51.446;6.792;2023-08-06T07:29:00;2.90;;;1.50;;
46491;SDS011;32206;51.446;6.792;2023-08-06T07:31:26;1.55;;;1.40;;
46491;SDS011;32206;51.446;6.792;2023-08-06T07:33:52;3.22;;;1.30;;
46491;SDS011;32206;51.446;6.792;2023-08-06T07:36:17;1.90;;;1.60;;
46491;SDS011;32206;51.446;6.792;2023-08-06T07:38:43;1.45;;;1.30;;
46491;SDS011;32206;51.446;6.792;2023-08-06T07:41:09;1.90;;;1.73;;
46491;SDS011;32206;51.446;6.792;2023-08-06T07:43:34;1.98;;;1.55;;
46491;SDS011;32206;51.446;6.792;2023-08-06T07:46:03;4.30;;;2.17;;
46491;SDS011;32206;51.446;6.792;2023-08-06T07:48:28;7.13;;;3.38;;
46491;SDS011;32206;51.446;6.792;2023-08-06T07:50:55;2.22;;;1.98;;
46491;SDS011;32206;51.446;6.792;2023-08-06T07:53:21;1.80;;;1.63;;
46491;SDS011;32206;51.446;6.792;2023-08-06T07:55:51;3.60;;;2.13;;
46491;SDS011;32206;51.446;6.792;2023-08-06T07:58:18;1.70;;;1.55;;
46491;SDS011;32206;51.446;6.792;2023-08-06T08:00:44;2.35;;;2.00;;
46491;SDS011;32206;51.446;6.792;2023-08-06T08:03:13;5.00;;;1.88;;
46491;SDS011;32206;51.446;6.792;2023-08-06T08:05:39;2.58;;;2.13;;
46491;SDS011;32206;51.446;6.792;2023-08-06T08:08:05;5.30;;;3.13;;
46491;SDS011;32206;51.446;6.792;2023-08-06T08:10:32;4.88;;;4.45;;
46491;SDS011;32206;51.446;6.792;2023-08-06T08:12:57;5.22;;;4.70;;
46491;SDS011;32206;51.446;6.792;2023-08-06T08:22:07;4.78;;;2.97;;
46491;SDS011;32206;51.446;6.792;2023-08-06T08:24:33;6.53;;;3.30;;
46491;SDS011;32206;51.446;6.792;2023-08-06T08:26:59;3.03;;;2.70;;
46491;SDS011;32206;51.446;6.792;2023-08-06T08:29:25;5.97;;;2.72;;
46491;SDS011;32206;51.446;6.792;2023-08-06T08:31:51;3.50;;;2.47;;
46491;SDS011;32206;51.446;6.792;2023-08-06T08:34:17;3.38;;;2.20;;
46491;SDS011;32206;51.446;6.792;2023-08-06T08:36:42;4.38;;;2.67;;
46491;SDS011;32206;51.446;6.792;2023-08-06T08:39:09;4.13;;;2.13;;
46491;SDS011;32206;51.446;6.792;2023-08-06T08:41:36;5.05;;;2.58;;
46491;SDS011;32206;51.446;6.792;2023-08-06T08:44:02;6.20;;;2.13;;
46491;SDS011;32206;51.446;6.792;2023-08-06T08:46:30;4.65;;;2.05;;
46491;SDS011;32206;51.446;6.792;2023-08-06T08:48:57;4.95;;;1.88;;
46491;SDS011;32206;51.446;6.792;2023-08-06T08:51:25;3.05;;;1.83;;
46491;SDS011;32206;51.446;6.792;2023-08-06T08:57:14;18.40;;;12.68;;
46491;SDS011;32206;51.446;6.792;2023-08-06T08:59:40;8.27;;;6.53;;
46491;SDS011;32206;51.446;6.792;2023-08-06T09:02:06;7.65;;;4.45;;
46491;SDS011;32206;51.446;6.792;2023-08-06T09:04:36;3.13;;;2.83;;
46491;SDS011;32206;51.446;6.792;2023-08-06T09:07:02;3.60;;;3.17;;
46491;SDS011;32206;51.446;6.792;2023-08-06T09:09:33;2.85;;;2.33;;
46491;SDS011;32206;51.446;6.792;2023-08-06T09:12:05;4.63;;;2.45;;
46491;SDS011;32206;51.446;6.792;2023-08-06T09:14:37;4.82;;;2.75;;
46491;SDS011;32206;51.446;6.792;2023-08-06T09:17:03;5.30;;;3.28;;
46491;SDS011;32206;51.446;6.792;2023-08-06T09:19:29;5.03;;;2.72;;
46491;SDS011;32206;51.446;6.792;2023-08-06T09:21:55;3.15;;;2.88;;
46491;SDS011;32206;51.446;6.792;2023-08-06T09:27:13;4.97;;;2.95;;
46491;SDS011;32206;51.446;6.792;2023-08-06T09:29:43;7.57;;;3.25;;
46491;SDS011;32206;51.446;6.792;2023-08-06T09:32:10;3.60;;;3.13;;
46491;SDS011;32206;51.446;6.792;2023-08-06T09:34:38;4.45;;;3.42;;
46491;SDS011;32206;51.446;6.792;2023-08-06T09:37:05;7.07;;;3.30;;
46491;SDS011;32206;51.446;6.792;2023-08-06T09:39:31;4.43;;;2.60;;
46491;SDS011;32206;51.446;6.792;2023-08-06T09:45:19;3.22;;;2.35;;
46491;SDS011;32206;51.446;6.792;2023-08-06T09:47:46;2.75;;;2.10;;
46491;SDS011;32206;51.446;6.792;2023-08-06T09:50:19;3.75;;;1.73;;
46491;SDS011;32206;51.446;6.792;2023-08-06T09:52:46;1.95;;;1.70;;
46491;SDS011;32206;51.446;6.792;2023-08-06T09:55:14;1.88;;;1.70;;
46491;SDS011;32206;51.446;6.792;2023-08-06T09:57:41;4.32;;;2.13;;
46491;SDS011;32206;51.446;6.792;2023-08-06T10:00:07;2.55;;;1.60;;
46491;SDS011;32206;51.446;6.792;2023-08-06T10:02:35;4.18;;;1.98;;
46491;SDS011;32206;51.446;6.792;2023-08-06T10:05:02;2.17;;;1.50;;
46491;SDS011;32206;51.446;6.792;2023-08-06T10:11:16;2.93;;;2.73;;
46491;SDS011;32206;51.446;6.792;2023-08-06T10:13:43;4.40;;;3.67;;
46491;SDS011;32206;51.446;6.792;2023-08-06T10:16:09;3.53;;;3.15;;
46491;SDS011;32206;51.446;6.792;2023-08-06T10:18:38;4.22;;;3.72;;
46491;SDS011;32206;51.446;6.792;2023-08-06T10:21:07;10.07;;;5.47;;
46491;SDS011;32206;51.446;6.792;2023-08-06T10:26:56;4.85;;;3.67;;
46491;SDS011;32206;51.446;6.792;2023-08-06T10:29:36;5.18;;;4.38;;
46491;SDS011;32206;51.446;6.792;2023-08-06T10:32:02;4.78;;;4.43;;
46491;SDS011;32206;51.446;6.792;2023-08-06T10:37:34;4.40;;;4.10;;
46491;SDS011;32206;51.446;6.792;2023-08-06T10:40:01;4.88;;;4.40;;
46491;SDS011;32206;51.446;6.792;2023-08-06T10:42:28;5.57;;;4.97;;
46491;SDS011;32206;51.446;6.792;2023-08-06T10:45:37;4.05;;;3.78;;
46491;SDS011;32206;51.446;6.792;2023-08-06T10:47:44;4.72;;;4.15;;
46491;SDS011;32206;51.446;6.792;2023-08-06T10:50:11;5.43;;;4.90;;
46491;SDS011;32206;51.446;6.792;2023-08-06T10:59:23;0.60;;;0.50;;
46491;SDS011;32206;51.446;6.792;2023-08-06T11:01:54;0.60;;;0.50;;
46491;SDS011;32206;51.446;6.792;2023-08-06T11:04:21;0.73;;;0.43;;
46491;SDS011;32206;51.446;6.792;2023-08-06T11:06:51;0.73;;;0.50;;
46491;SDS011;32206;51.446;6.792;2023-08-06T11:09:18;0.38;;;0.38;;
46491;SDS011;32206;51.446;6.792;2023-08-06T11:11:43;2.58;;;0.82;;
46491;SDS011;32206;51.446;6.792;2023-08-06T11:14:14;1.48;;;0.40;;
46491;SDS011;32206;51.446;6.792;2023-08-06T11:16:40;2.95;;;1.05;;
46491;SDS011;32206;51.446;6.792;2023-08-06T11:19:07;2.40;;;0.60;;
46491;SDS011;32206;51.446;6.792;2023-08-06T11:21:33;0.30;;;0.30;;
46491;SDS011;32206;51.446;6.792;2023-08-06T11:23:58;0.90;;;0.40;;
46491;SDS011;32206;51.446;6.792;2023-08-06T11:26:25;0.60;;;0.40;;
46491;SDS011;32206;51.446;6.792;2023-08-06T11:28:52;2.35;;;1.58;;
46491;SDS011;32206;51.446;6.792;2023-08-06T11:31:19;1.33;;;0.70;;
46491;SDS011;32206;51.446;6.792;2023-08-06T11:33:45;1.27;;;0.90;;
46491;SDS011;32206;51.446;6.792;2023-08-06T11:36:11;0.50;;;0.50;;
46491;SDS011;32206;51.446;6.792;2023-08-06T11:38:36;1.33;;;0.75;;
46491;SDS011;32206;51.446;6.792;2023-08-06T11:41:02;0.52;;;0.50;;
46491;SDS011;32206;51.446;6.792;2023-08-06T11:46:53;1.15;;;0.52;;
46491;SDS011;32206;51.446;6.792;2023-08-06T11:49:40;1.70;;;0.57;;
46491;SDS011;32206;51.446;6.792;2023-08-06T11:54:38;2.67;;;0.77;;
46491;SDS011;32206;51.446;6.792;2023-08-06T11:57:07;0.50;;;0.50;;
46491;SDS011;32206;51.446;6.792;2023-08-06T11:59:36;0.40;;;0.40;;
46491;SDS011;32206;51.446;6.792;2023-08-06T12:02:04;0.57;;;0.40;;
46491;SDS011;32206;51.446;6.792;2023-08-06T12:07:43;0.35;;;0.35;;
46491;SDS011;32206;51.446;6.792;2023-08-06T12:10:10;0.20;;;0.20;;
46491;SDS011;32206;51.446;6.792;2023-08-06T12:12:37;1.50;;;0.38;;
46491;SDS011;32206;51.446;6.792;2023-08-06T12:15:04;0.30;;;0.30;;
46491;SDS011;32206;51.446;6.792;2023-08-06T12:17:31;0.77;;;0.40;;
46491;SDS011;32206;51.446;6.792;2023-08-06T12:19:57;1.08;;;0.47;;
46491;SDS011;32206;51.446;6.792;2023-08-06T12:22:22;0.30;;;0.30;;
46491;SDS011;32206;51.446;6.792;2023-08-06T12:24:48;0.40;;;0.40;;
46491;SDS011;32206;51.446;6.792;2023-08-06T12:27:14;1.15;;;0.65;;
46491;SDS011;32206;51.446;6.792;2023-08-06T12:29:42;0.50;;;0.40;;
46491;SDS011;32206;51.446;6.792;2023-08-06T12:32:12;1.45;;;0.43;;
46491;SDS011;32206;51.446;6.792;2023-08-06T12:38:01;0.50;;;0.50;;
46491;SDS011;32206;51.446;6.792;2023-08-06T12:40:28;0.77;;;0.77;;
46491;SDS011;32206;51.446;6.792;2023-08-06T12:46:16;0.93;;;0.93;;
46491;SDS011;32206;51.446;6.792;2023-08-06T12:48:42;0.63;;;0.63;;
46491;SDS011;32206;51.446;6.792;2023-08-06T12:51:08;1.00;;;1.00;;
46491;SDS011;32206;51.446;6.792;2023-08-06T12:53:33;2.55;;;1.58;;
46491;SDS011;32206;51.446;6.792;2023-08-06T12:55:59;0.95;;;0.85;;
46491;SDS011;32206;51.446;6.792;2023-08-06T12:58:24;0.80;;;0.80;;
46491;SDS011;32206;51.446;6.792;2023-08-06T13:00:50;1.25;;;1.00;;
46491;SDS011;32206;51.446;6.792;2023-08-06T13:03:16;1.52;;;1.00;;
46491;SDS011;32206;51.446;6.792;2023-08-06T13:05:42;1.20;;;1.10;;
46491;SDS011;32206;51.446;6.792;2023-08-06T13:08:09;1.05;;;1.05;;
46491;SDS011;32206;51.446;6.792;2023-08-06T13:10:34;1.58;;;1.10;;
46491;SDS011;32206;51.446;6.792;2023-08-06T13:13:00;2.20;;;0.98;;
46491;SDS011;32206;51.446;6.792;2023-08-06T13:15:26;1.20;;;1.10;;
46491;SDS011;32206;51.446;6.792;2023-08-06T13:17:52;1.30;;;1.20;;
46491;SDS011;32206;51.446;6.792;2023-08-06T13:20:17;1.33;;;1.15;;
46491;SDS011;32206;51.446;6.792;2023-08-06T13:22:44;3.55;;;2.42;;
46491;SDS011;32206;51.446;6.792;2023-08-06T13:25:11;2.75;;;1.92;;
46491;SDS011;32206;51.446;6.792;2023-08-06T13:27:39;2.85;;;1.50;;
46491;SDS011;32206;51.446;6.792;2023-08-06T13:30:05;3.60;;;1.60;;
46491;SDS011;32206;51.446;6.792;2023-08-06T13:32:32;1.85;;;1.65;;
46491;SDS011;32206;51.446;6.792;2023-08-06T13:34:58;2.65;;;1.77;;
46491;SDS011;32206;51.446;6.792;2023-08-06T13:37:24;1.25;;;1.15;;
46491;SDS011;32206;51.446;6.792;2023-08-06T13:39:50;3.15;;;1.50;;
46491;SDS011;32206;51.446;6.792;2023-08-06T13:42:15;1.63;;;1.20;;
46491;SDS011;32206;51.446;6.792;2023-08-06T13:44:41;2.20;;;1.50;;
46491;SDS011;32206;51.446;6.792;2023-08-06T13:47:06;1.92;;;1.70;;
46491;SDS011;32206;51.446;6.792;2023-08-06T13:49:33;1.75;;;1.58;;
46491;SDS011;32206;51.446;6.792;2023-08-06T13:51:58;2.92;;;1.27;;
46491;SDS011;32206;51.446;6.792;2023-08-06T13:54:24;1.50;;;1.27;;
46491;SDS011;32206;51.446;6.792;2023-08-06T13:56:49;1.55;;;1.38;;
46491;SDS011;32206;51.446;6.792;2023-08-06T13:59:16;1.42;;;1.33;;
46491;SDS011;32206;51.446;6.792;2023-08-06T14:01:42;1.38;;;1.27;;
46491;SDS011;32206;51.446;6.792;2023-08-06T14:04:07;1.20;;;1.10;;
46491;SDS011;32206;51.446;6.792;2023-08-06T14:06:33;2.20;;;1.42;;
46491;SDS011;32206;51.446;6.792;2023-08-06T14:08:59;2.50;;;1.50;;
46491;SDS011;32206;51.446;6.792;2023-08-06T14:11:24;1.33;;;1.10;;
46491;SDS011;32206;51.446;6.792;2023-08-06T14:13:50;1.60;;;1.13;;
46491;SDS011;32206;51.446;6.792;2023-08-06T14:16:16;2.92;;;1.42;;
46491;SDS011;32206;51.446;6.792;2023-08-06T14:18:42;1.40;;;1.30;;
46491;SDS011;32206;51.446;6.792;2023-08-06T14:21:07;2.78;;;1.50;;
46491;SDS011;32206;51.446;6.792;2023-08-06T14:23:33;1.33;;;1.20;;
46491;SDS011;32206;51.446;6.792;2023-08-06T14:25:59;4.00;;;1.52;;
46491;SDS011;32206;51.446;6.792;2023-08-06T14:28:25;2.05;;;1.10;;
46491;SDS011;32206;51.446;6.792;2023-08-06T14:30:50;3.28;;;1.50;;
46491;SDS011;32206;51.446;6.792;2023-08-06T14:33:16;1.92;;;1.27;;
46491;SDS011;32206;51.446;6.792;2023-08-06T14:35:42;1.77;;;1.15;;
46491;SDS011;32206;51.446;6.792;2023-08-06T14:38:07;12.63;;;6.72;;
46491;SDS011;32206;51.446;6.792;2023-08-06T14:40:33;4.38;;;3.47;;
46491;SDS011;32206;51.446;6.792;2023-08-06T14:46:25;2.20;;;1.20;;
46491;SDS011;32206;51.446;6.792;2023-08-06T14:48:50;1.10;;;0.75;;
46491;SDS011;32206;51.446;6.792;2023-08-06T14:51:16;0.90;;;0.90;;
46491;SDS011;32206;51.446;6.792;2023-08-06T14:53:44;1.25;;;0.90;;
46491;SDS011;32206;51.446;6.792;2023-08-06T14:56:10;1.52;;;1.15;;
46491;SDS011;32206;51.446;6.792;2023-08-06T14:58:35;1.73;;;0.93;;
46491;SDS011;32206;51.446;6.792;2023-08-06T15:01:01;1.25;;;0.90;;
46491;SDS011;32206;51.446;6.792;2023-08-06T15:03:27;1.10;;;0.88;;
46491;SDS011;32206;51.446;6.792;2023-08-06T15:05:53;1.55;;;0.80;;
46491;SDS011;32206;51.446;6.792;2023-08-06T15:08:19;2.80;;;1.10;;
46491;SDS011;32206;51.446;6.792;2023-08-06T15:10:53;0.95;;;0.85;;
46491;SDS011;32206;51.446;6.792;2023-08-06T15:13:19;2.65;;;1.23;;
46491;SDS011;32206;51.446;6.792;2023-08-06T15:15:48;2.17;;;0.93;;
46491;SDS011;32206;51.446;6.792;2023-08-06T15:18:14;1.48;;;0.80;;
46491;SDS011;32206;51.446;6.792;2023-08-06T15:20:40;1.77;;;1.00;;
46491;SDS011;32206;51.446;6.792;2023-08-06T15:23:06;1.00;;;0.90;;
46491;SDS011;32206;51.446;6.792;2023-08-06T15:25:32;1.63;;;1.02;;
46491;SDS011;32206;51.446;6.792;2023-08-06T15:27:57;0.77;;;0.70;;
46491;SDS011;32206;51.446;6.792;2023-08-06T15:30:23;3.33;;;0.73;;
46491;SDS011;32206;51.446;6.792;2023-08-06T15:32:49;1.27;;;0.88;;
46491;SDS011;32206;51.446;6.792;2023-08-06T15:35:14;1.52;;;0.80;;
46491;SDS011;32206;51.446;6.792;2023-08-06T15:37:40;2.40;;;0.80;;
46491;SDS011;32206;51.446;6.792;2023-08-06T15:40:06;1.42;;;0.80;;
46491;SDS011;32206;51.446;6.792;2023-08-06T15:46:10;1.38;;;1.23;;
46491;SDS011;32206;51.446;6.792;2023-08-06T15:48:35;1.35;;;0.70;;
46491;SDS011;32206;51.446;6.792;2023-08-06T15:51:01;2.33;;;0.85;;
46491;SDS011;32206;51.446;6.792;2023-08-06T15:53:28;2.85;;;0.65;;
46491;SDS011;32206;51.446;6.792;2023-08-06T15:55:54;0.73;;;0.63;;
46491;SDS011;32206;51.446;6.792;2023-08-06T15:58:19;1.38;;;0.90;;
46491;SDS011;32206;51.446;6.792;2023-08-06T16:00:45;0.70;;;0.70;;
46491;SDS011;32206;51.446;6.792;2023-08-06T16:03:11;1.17;;;0.90;;
46491;SDS011;32206;51.446;6.792;2023-08-06T16:05:36;0.93;;;0.60;;
46491;SDS011;32206;51.446;6.792;2023-08-06T16:08:02;1.00;;;0.80;;
46491;SDS011;32206;51.446;6.792;2023-08-06T16:10:28;3.15;;;0.68;;
46491;SDS011;32206;51.446;6.792;2023-08-06T16:12:54;1.77;;;1.67;;
46491;SDS011;32206;51.446;6.792;2023-08-06T16:15:20;4.57;;;2.72;;
46491;SDS011;32206;51.446;6.792;2023-08-06T16:17:46;0.93;;;0.60;;
46491;SDS011;32206;51.446;6.792;2023-08-06T16:20:12;1.30;;;0.68;;
46491;SDS011;32206;51.446;6.792;2023-08-06T16:22:39;3.50;;;0.88;;
46491;SDS011;32206;51.446;6.792;2023-08-06T16:25:06;2.08;;;1.35;;
46491;SDS011;32206;51.446;6.792;2023-08-06T16:27:35;1.88;;;0.70;;
46491;SDS011;32206;51.446;6.792;2023-08-06T16:30:00;1.05;;;0.70;;
46491;SDS011;32206;51.446;6.792;2023-08-06T16:32:26;1.48;;;0.80;;
46491;SDS011;32206;51.446;6.792;2023-08-06T16:34:52;2.70;;;0.98;;